Station info - map view · info · telemetry · weather · raw · status · beacons · messages · bulletins · browse · moving · my account
Callsign, ship name or locator: Clear       
It is possible to search using wildcards (*?) after a prefix. Example: OH*
APRS station 7M1RUL-9 - show graphs
Map loading...
Mic-E message: Off duty
Location: 35°45.37' N 139°36.09' E - locator PM95TS21EL - show map - static map
2.6 miles Southwest bearing 208° from Wako, Saitama, Japan [?]
3.4 miles South bearing 180° from Asaka, Saitama, Japan
6.8 miles Northwest bearing 312° from Tokyo, Tōkyō, Japan
21.4 miles North bearing 354° from Yokohama-shi, Kanagawa, Japan
Last position: 2017-05-26 10:17:12 EDT (23h34m ago)
2017-05-26 23:17:12 JST local time at Wako, Japan [?]
Altitude: 187 ft
Course: 109°
Speed: 38 MPH
Device: Yaesu: FTM-350 (rig)
Last path: 7M1RUL-9>SUTUS7 via WIDE1-1,qAS,JA1KWV-1 (good)
Positions stored: 49282
Packet rate: 365 seconds between packets on average during 17500 seconds.
Stations near current position of 7M1RUL-9 - show more
callsign distance last heard - EDT      callsign distance last heard - EDT
JA1UKF-9281.6 yards 235°2017-05-26 08:17:10 JN1USI-90.4 miles 238°2017-05-24 06:57:39
JS1FRD-C0.5 miles 109°2017-05-13 10:04:13 JH1HJM0.5 miles 228°2017-05-23 08:10:31
JK1DZT-M0.9 miles 109°2017-05-21 09:19:08 JG1MGP-91.3 miles 255°2017-05-14 07:54:37
JF1HMC-91.4 miles 81°2017-05-06 09:37:29 JO1VYM-5-i1.5 miles 293°2017-05-20 13:54:23
JI1OMT-A1.6 miles 80°2017-05-20 19:16:29 JN1BYJ-91.7 miles 220°2017-05-07 05:02:21
JF9OBD-91.7 miles 9°2017-05-27 03:34:40 JF4HIC1.8 miles 331°2017-05-27 02:51:13
JN1ZOG-121.8 miles 152°2017-05-27 09:31:07 JR6LWQ-92.3 miles 22°2017-05-27 05:30:14
JJ1CZZ-72.3 miles 206°2017-05-06 20:12:44 JA1KWV-102.4 miles 131°2017-05-27 09:51:28
JF1EPL-72.7 miles 189°2017-05-27 09:50:45 JI1LYD2.8 miles 196°2017-05-22 20:54:31
JN1ZOG-142.9 miles 163°2017-05-27 09:47:51 JL1SNU-133.0 miles 38°2017-05-27 09:49:25
Stations which heard 7M1RUL-9 directly on radio –
callsign pkts first heard - EDT last heard longest (tx => rx) longest at - EDT
JA1KWV-1 38 2017-05-12 00:01:07 2017-05-26 10:17:12 PM96QM > PM95TR 59.0 miles 165° 2017-05-12 02:57:06
JN1NVQ 29 2017-05-12 07:53:00 2017-05-26 09:51:07 PM96TS > PM96UE 39.4 miles 171° 2017-05-26 04:18:37
JN1NVQ-9 1 2017-05-12 08:15:13 2017-05-12 08:15:13 PM96UE > PM95WU 25.4 miles 158° 2017-05-12 08:15:13
JJ1CZU-1 10 2017-05-12 00:49:36 2017-05-26 01:38:44 PM96OH > PM96MM 16.6 miles 324° 2017-05-26 01:31:44
JH1YAK-1 11 2017-05-12 06:47:35 2017-05-26 08:52:21 PM96WJ > PM96QH 27.4 miles 255° 2017-05-26 08:14:27
JJ1YDX-3 12 2017-05-12 00:15:49 2017-05-26 09:49:09 PM95QW > QM06BF 44.6 miles 65° 2017-05-26 00:33:07
JE7YWO-1 4 2017-05-12 03:29:51 2017-05-26 04:18:04 PM96SR > QM07FH 64.1 miles 51° 2017-05-26 04:04:52
JE1ZPD-1 7 2017-05-12 03:32:38 2017-05-26 10:08:44 PM96SR > PM95WV 60.1 miles 161° 2017-05-12 03:32:38
JM1YTY-3 3 2017-05-12 01:48:56 2017-05-26 00:10:08 PM96NL > PM95WC 102.7 miles 156° 2017-05-12 01:48:56
JH1NDM-10 19 2017-05-12 00:43:54 2017-05-26 01:36:59 PM96NG > PM96MM 19.4 miles 340° 2017-05-12 00:43:54
JP7DKH-1 1 2017-05-26 05:25:32 2017-05-26 05:25:32 PM96UR > QM07KF 72.7 miles 62° 2017-05-26 05:25:32
JI1KAV-1 9 2017-05-12 01:15:01 2017-05-12 02:39:05 PM96PK > PM96NH 13.1 miles 233° 2017-05-12 02:39:05
JQ1SOA-1 18 2017-05-12 00:35:54 2017-05-26 04:05:57 PM96TR > PM96SG 33.2 miles 193° 2017-05-12 03:38:20
JQ1ZAB-1 3 2017-05-12 03:39:33 2017-05-26 04:19:40 PM96TS > QM05FV 76.9 miles 141° 2017-05-26 04:19:40
JE1EER-1 2 2017-05-12 01:51:34 2017-05-12 09:17:02 PM96OL > PM95WR 63.6 miles 144° 2017-05-12 01:51:34
7J1YAK-1 6 2017-05-12 09:20:26 2017-05-26 10:09:15 PM96WJ > PM95JL 87.1 miles 223° 2017-05-26 08:12:11
7L4AJF-1 2 2017-05-12 00:02:20 2017-05-12 09:25:24 PM95TS > PM95UT 6.1 miles 38° 2017-05-12 00:02:20
JL1PKS-3 1 2017-05-12 01:01:45 2017-05-12 01:01:45 PM96MM > PM96KO 11.7 miles 291° 2017-05-12 01:01:45
JG1LPN-10 8 2017-05-12 00:27:25 2017-05-26 00:40:22 PM96OL > PM96QB 30.7 miles 160° 2017-05-12 01:55:00
JI1UWB-1 2 2017-05-12 09:22:52 2017-05-26 09:59:29 PM95UV > PM95US 9.4 miles 175° 2017-05-26 09:59:29
JI1KAA-10 22 2017-05-12 03:31:23 2017-05-26 07:21:58 PM96SR > PM96WO 19.1 miles 120° 2017-05-26 04:07:17
7K3LHX-10 1 2017-05-26 10:04:38 2017-05-26 10:04:38 PM95UU > PM95XU 14.6 miles 87° 2017-05-26 10:04:38

Only position packets which were originated by the station are shown here. The range statistics show some extra long hops, because some digipeaters do not correctly add themselves to the digipeater path. Please check the raw packets.
About this site
This page shows real-time information collected from the Automatic Position Reporting System Internet network (APRS-IS). APRS is used by amateur (ham) radio operators to transmit real-time position information, weather data, telemetry and messages over the radio. A vehicle equipped with a GPS receiver, a VHF transmitter or HF transceiver and a small computer device called a tracker transmits it's location, speed and course in a small data packet, which is then received by a nearby iGate receiving site which forwards the packet on the Internet. Systems connected to the Internet can send information on the APRS-IS without a radio transmitter, or collect and display information transmitted anywhere in the world.
FAQ · Blog · Discussion group · Linking to aprs.fi · AIS sites · Service status · Database statistics · Advertising on aprs.fi · Technical details · API · Change log · Planned changes · Credits and thanks · Terms Of Service · iPhone/iPad APRS